sensor_id;sensor_type;location;lat;lon;timestamp;pressure;altitude;pressure_sealevel;temperature;humidity
7586;BME280;12459;42.646;23.292;2023-07-13T00:12:33;93994.44;;;22.97;78.00
7586;BME280;12459;42.646;23.292;2023-07-13T00:27:35;93975.03;;;22.80;77.77
7586;BME280;12459;42.646;23.292;2023-07-13T00:42:36;93993.09;;;22.78;77.33
7586;BME280;12459;42.646;23.292;2023-07-13T00:57:38;93820.53;;;21.52;79.59
7586;BME280;12459;42.646;23.292;2023-07-13T01:12:41;93966.88;;;22.42;81.98
7586;BME280;12459;42.646;23.292;2023-07-13T01:27:43;93662.00;;;19.96;85.23
7586;BME280;12459;42.646;23.292;2023-07-13T01:42:44;93821.66;;;21.22;85.19
7586;BME280;12459;42.646;23.292;2023-07-13T01:57:46;93761.81;;;20.56;89.19
7586;BME280;12459;42.646;23.292;2023-07-13T02:12:49;93987.09;;;21.49;93.71
7586;BME280;12459;42.646;23.292;2023-07-13T02:27:52;93982.44;;;21.40;95.86
7586;BME280;12459;42.646;23.292;2023-07-13T02:42:54;93863.81;;;20.36;96.17
7586;BME280;12459;42.646;23.292;2023-07-13T02:57:56;93851.16;;;20.24;98.02
7586;BME280;12459;42.646;23.292;2023-07-13T03:12:58;93798.06;;;19.87;100.00
7586;BME280;12459;42.646;23.292;2023-07-13T03:28:00;93913.66;;;20.70;100.00
7586;BME280;12459;42.646;23.292;2023-07-13T03:43:02;93764.19;;;19.88;100.00
7586;BME280;12459;42.646;23.292;2023-07-13T03:58:24;93992.78;;;21.60;100.00
7586;BME280;12459;42.646;23.292;2023-07-13T04:13:27;93552.50;;;19.53;100.00
7586;BME280;12459;42.646;23.292;2023-07-13T04:28:29;93933.69;;;21.81;100.00
7586;BME280;12459;42.646;23.292;2023-07-13T04:43:32;94009.47;;;24.07;93.26
7586;BME280;12459;42.646;23.292;2023-07-13T04:58:34;94027.44;;;24.28;93.37
7586;BME280;12459;42.646;23.292;2023-07-13T05:13:36;93937.09;;;23.73;93.94
7586;BME280;12459;42.646;23.292;2023-07-13T05:28:38;94004.41;;;24.66;95.40
7586;BME280;12459;42.646;23.292;2023-07-13T05:43:40;93889.19;;;24.87;85.47
7586;BME280;12459;42.646;23.292;2023-07-13T05:58:41;93972.06;;;26.19;83.80
7586;BME280;12459;42.646;23.292;2023-07-13T06:13:44;94023.59;;;27.28;79.23
7586;BME280;12459;42.646;23.292;2023-07-13T06:28:46;94050.59;;;27.80;75.76
7586;BME280;12459;42.646;23.292;2023-07-13T06:43:48;93994.28;;;27.64;70.84
7586;BME280;12459;42.646;23.292;2023-07-13T06:58:50;94013.25;;;27.95;71.77
7586;BME280;12459;42.646;23.292;2023-07-13T07:13:52;94046.53;;;28.25;72.06
7586;BME280;12459;42.646;23.292;2023-07-13T07:28:55;93893.72;;;27.18;73.90
7586;BME280;12459;42.646;23.292;2023-07-13T07:44:16;94035.63;;;28.55;71.42
7586;BME280;12459;42.646;23.292;2023-07-13T07:59:19;93965.13;;;29.01;68.73
7586;BME280;12459;42.646;23.292;2023-07-13T08:14:23;93988.28;;;29.58;66.81
7586;BME280;12459;42.646;23.292;2023-07-13T08:29:39;93980.97;;;29.85;70.12
7586;BME280;12459;42.646;23.292;2023-07-13T08:59:49;93975.72;;;29.81;67.47
7586;BME280;12459;42.646;23.292;2023-07-13T09:14:53;93983.09;;;29.49;63.64
7586;BME280;12459;42.646;23.292;2023-07-13T09:45:29;93976.38;;;30.17;62.21
7586;BME280;12459;42.646;23.292;2023-07-13T10:00:32;93970.44;;;30.70;56.38
7586;BME280;12459;42.646;23.292;2023-07-13T10:15:34;93865.53;;;30.98;54.45
7586;BME280;12459;42.646;23.292;2023-07-13T10:30:39;93930.22;;;32.52;47.85
7586;BME280;12459;42.646;23.292;2023-07-13T10:45:45;93891.22;;;32.91;42.51
7586;BME280;12459;42.646;23.292;2023-07-13T11:01:03;93853.09;;;33.41;43.53
7586;BME280;12459;42.646;23.292;2023-07-13T11:31:20;93751.94;;;33.16;43.32
7586;BME280;12459;42.646;23.292;2023-07-13T11:46:27;93739.09;;;33.05;44.43
7586;BME280;12459;42.646;23.292;2023-07-13T12:01:31;93795.47;;;33.42;41.44
7586;BME280;12459;42.646;23.292;2023-07-13T12:16:35;93766.97;;;33.20;42.00
7586;BME280;12459;42.646;23.292;2023-07-13T12:31:41;93814.94;;;33.42;42.58
7586;BME280;12459;42.646;23.292;2023-07-13T12:47:02;93731.06;;;32.73;44.31
7586;BME280;12459;42.646;23.292;2023-07-13T13:02:26;93680.69;;;32.69;42.11
7586;BME280;12459;42.646;23.292;2023-07-13T13:17:30;93772.06;;;32.80;43.51
7586;BME280;12459;42.646;23.292;2023-07-13T13:32:33;93774.00;;;32.93;43.45
7586;BME280;12459;42.646;23.292;2023-07-13T13:47:35;93743.78;;;32.40;44.62
7586;BME280;12459;42.646;23.292;2023-07-13T14:02:38;93713.91;;;32.54;43.96
7586;BME280;12459;42.646;23.292;2023-07-13T14:17:40;93643.66;;;32.17;42.80
7586;BME280;12459;42.646;23.292;2023-07-13T14:32:46;93693.19;;;32.55;40.51
7586;BME280;12459;42.646;23.292;2023-07-13T14:47:48;93727.25;;;32.55;41.54
7586;BME280;12459;42.646;23.292;2023-07-13T15:02:53;93520.91;;;30.99;44.15
7586;BME280;12459;42.646;23.292;2023-07-13T15:17:56;93726.13;;;32.17;46.70
7586;BME280;12459;42.646;23.292;2023-07-13T15:33:05;93602.75;;;30.74;49.97
7586;BME280;12459;42.646;23.292;2023-07-13T16:03:20;93737.09;;;31.54;52.79
7586;BME280;12459;42.646;23.292;2023-07-13T16:18:22;93689.72;;;30.92;55.58
7586;BME280;12459;42.646;23.292;2023-07-13T16:33:24;93681.09;;;30.95;60.77
7586;BME280;12459;42.646;23.292;2023-07-13T16:48:26;93696.72;;;30.53;61.85
7586;BME280;12459;42.646;23.292;2023-07-13T17:03:31;93708.38;;;29.82;55.73
7586;BME280;12459;42.646;23.292;2023-07-13T17:18:34;93627.66;;;29.19;61.05
7586;BME280;12459;42.646;23.292;2023-07-13T17:33:41;93649.25;;;28.97;59.48
7586;BME280;12459;42.646;23.292;2023-07-13T17:48:45;93727.97;;;29.65;60.34
7586;BME280;12459;42.646;23.292;2023-07-13T18:03:50;93750.38;;;28.70;65.84
7586;BME280;12459;42.646;23.292;2023-07-13T18:18:56;93610.19;;;27.29;63.64
7586;BME280;12459;42.646;23.292;2023-07-13T18:33:59;93676.47;;;27.31;62.07
7586;BME280;12459;42.646;23.292;2023-07-13T18:49:03;93601.34;;;26.32;64.81
7586;BME280;12459;42.646;23.292;2023-07-13T19:04:26;93814.84;;;27.38;69.77
7586;BME280;12459;42.646;23.292;2023-07-13T19:19:29;93694.78;;;25.98;67.79
7586;BME280;12459;42.646;23.292;2023-07-13T19:34:31;93836.19;;;26.98;68.35
7586;BME280;12459;42.646;23.292;2023-07-13T19:49:35;93577.03;;;24.63;68.75
7586;BME280;12459;42.646;23.292;2023-07-13T20:04:36;93665.75;;;25.30;71.16
7586;BME280;12459;42.646;23.292;2023-07-13T20:19:38;93620.66;;;24.66;67.24
7586;BME280;12459;42.646;23.292;2023-07-13T20:34:40;93649.38;;;24.88;67.34
7586;BME280;12459;42.646;23.292;2023-07-13T20:49:42;93714.63;;;25.21;67.40
7586;BME280;12459;42.646;23.292;2023-07-13T21:04:44;93770.09;;;25.53;69.38
7586;BME280;12459;42.646;23.292;2023-07-13T21:19:46;93744.84;;;24.41;74.21
7586;BME280;12459;42.646;23.292;2023-07-13T21:34:47;93705.72;;;23.77;76.72
7586;BME280;12459;42.646;23.292;2023-07-13T21:49:49;93565.78;;;22.55;81.90
7586;BME280;12459;42.646;23.292;2023-07-13T22:04:51;93667.31;;;23.40;84.24
7586;BME280;12459;42.646;23.292;2023-07-13T22:19:53;93541.38;;;22.05;86.35
7586;BME280;12459;42.646;23.292;2023-07-13T22:34:55;93732.31;;;23.97;87.63
7586;BME280;12459;42.646;23.292;2023-07-13T22:49:57;93539.16;;;21.89;95.32
7586;BME280;12459;42.646;23.292;2023-07-13T23:04:58;93616.09;;;22.69;96.53
7586;BME280;12459;42.646;23.292;2023-07-13T23:20:24;93711.75;;;23.09;100.00
7586;BME280;12459;42.646;23.292;2023-07-13T23:35:27;93706.88;;;22.78;100.00
7586;BME280;12459;42.646;23.292;2023-07-13T23:50:31;93715.88;;;23.45;98.76
